sensor_id;sensor_type;location;lat;lon;timestamp;pressure;altitude;pressure_sealevel;temperature;humidity
54924;BME280;40825;52.270;20.984;2023-07-08T00:01:14;101176.95;;;17.57;54.60
54924;BME280;40825;52.270;20.984;2023-07-08T00:03:45;101178.02;;;17.55;54.90
54924;BME280;40825;52.270;20.984;2023-07-08T00:06:20;101175.23;;;17.53;54.95
54924;BME280;40825;52.270;20.984;2023-07-08T00:08:46;101173.52;;;17.52;55.31
54924;BME280;40825;52.270;20.984;2023-07-08T00:11:13;101171.23;;;17.50;55.44
54924;BME280;40825;52.270;20.984;2023-07-08T00:13:39;101177.10;;;17.49;56.10
54924;BME280;40825;52.270;20.984;2023-07-08T00:16:10;101177.28;;;17.47;56.22
54924;BME280;40825;52.270;20.984;2023-07-08T00:18:36;101176.66;;;17.44;56.61
54924;BME280;40825;52.270;20.984;2023-07-08T00:21:02;101177.50;;;17.44;56.47
54924;BME280;40825;52.270;20.984;2023-07-08T00:23:31;101182.24;;;17.42;56.56
54924;BME280;40825;52.270;20.984;2023-07-08T00:26:04;101183.96;;;17.40;56.46
54924;BME280;40825;52.270;20.984;2023-07-08T00:28:30;101186.23;;;17.38;57.04
54924;BME280;40825;52.270;20.984;2023-07-08T00:30:55;101183.99;;;17.36;56.80
54924;BME280;40825;52.270;20.984;2023-07-08T00:33:23;101183.34;;;17.33;57.80
54924;BME280;40825;52.270;20.984;2023-07-08T00:35:48;101188.84;;;17.31;58.23
54924;BME280;40825;52.270;20.984;2023-07-08T00:38:26;101189.39;;;17.28;57.57
54924;BME280;40825;52.270;20.984;2023-07-08T00:43:21;101190.59;;;17.22;57.88
54924;BME280;40825;52.270;20.984;2023-07-08T00:45:50;101192.31;;;17.17;58.01
54924;BME280;40825;52.270;20.984;2023-07-08T00:48:27;101190.19;;;17.15;58.02
54924;BME280;40825;52.270;20.984;2023-07-08T00:50:54;101188.52;;;17.11;58.02
54924;BME280;40825;52.270;20.984;2023-07-08T00:53:33;101184.23;;;17.08;58.11
54924;BME280;40825;52.270;20.984;2023-07-08T00:56:05;101190.05;;;17.07;58.43
54924;BME280;40825;52.270;20.984;2023-07-08T00:58:39;101192.59;;;17.03;58.80
54924;BME280;40825;52.270;20.984;2023-07-08T01:01:07;101197.83;;;17.02;58.57
54924;BME280;40825;52.270;20.984;2023-07-08T01:03:39;101190.88;;;17.00;58.44
54924;BME280;40825;52.270;20.984;2023-07-08T01:06:06;101192.83;;;16.98;58.53
54924;BME280;40825;52.270;20.984;2023-07-08T01:08:32;101190.45;;;16.96;58.67
54924;BME280;40825;52.270;20.984;2023-07-08T01:11:02;101189.20;;;16.93;58.83
54924;BME280;40825;52.270;20.984;2023-07-08T01:13:35;101194.27;;;16.91;58.82
54924;BME280;40825;52.270;20.984;2023-07-08T01:16:02;101190.30;;;16.89;58.82
54924;BME280;40825;52.270;20.984;2023-07-08T01:18:29;101192.25;;;16.87;59.01
54924;BME280;40825;52.270;20.984;2023-07-08T01:20:55;101189.23;;;16.85;59.07
54924;BME280;40825;52.270;20.984;2023-07-08T01:23:22;101188.59;;;16.83;58.79
54924;BME280;40825;52.270;20.984;2023-07-08T01:25:49;101186.89;;;16.81;58.97
54924;BME280;40825;52.270;20.984;2023-07-08T01:28:15;101189.06;;;16.77;59.28
54924;BME280;40825;52.270;20.984;2023-07-08T01:30:44;101186.92;;;16.74;59.31
54924;BME280;40825;52.270;20.984;2023-07-08T01:33:17;101183.39;;;16.71;59.76
54924;BME280;40825;52.270;20.984;2023-07-08T01:35:45;101184.16;;;16.67;59.77
54924;BME280;40825;52.270;20.984;2023-07-08T01:38:17;101186.66;;;16.63;59.86
54924;BME280;40825;52.270;20.984;2023-07-08T01:40:55;101186.33;;;16.60;59.95
54924;BME280;40825;52.270;20.984;2023-07-08T01:43:21;101182.52;;;16.56;60.54
54924;BME280;40825;52.270;20.984;2023-07-08T01:45:48;101186.58;;;16.50;60.25
54924;BME280;40825;52.270;20.984;2023-07-08T01:48:19;101185.38;;;16.46;60.05
54924;BME280;40825;52.270;20.984;2023-07-08T01:51:00;101187.34;;;16.40;60.93
54924;BME280;40825;52.270;20.984;2023-07-08T01:53:35;101185.93;;;16.36;61.29
54924;BME280;40825;52.270;20.984;2023-07-08T01:56:02;101183.58;;;16.31;61.06
54924;BME280;40825;52.270;20.984;2023-07-08T01:58:28;101185.83;;;16.27;61.34
54924;BME280;40825;52.270;20.984;2023-07-08T02:01:01;101186.04;;;16.22;61.21
54924;BME280;40825;52.270;20.984;2023-07-08T02:03:28;101179.16;;;16.18;61.54
54924;BME280;40825;52.270;20.984;2023-07-08T02:05:54;101175.98;;;16.13;62.25
54924;BME280;40825;52.270;20.984;2023-07-08T02:08:20;101176.47;;;16.07;62.36
54924;BME280;40825;52.270;20.984;2023-07-08T02:10:50;101172.66;;;16.04;62.24
54924;BME280;40825;52.270;20.984;2023-07-08T02:13:17;101171.64;;;16.02;62.34
54924;BME280;40825;52.270;20.984;2023-07-08T02:15:43;101169.70;;;16.01;62.49
54924;BME280;40825;52.270;20.984;2023-07-08T02:18:08;101166.42;;;15.99;62.57
54924;BME280;40825;52.270;20.984;2023-07-08T02:20:34;101166.09;;;15.97;62.78
54924;BME280;40825;52.270;20.984;2023-07-08T02:23:00;101169.02;;;15.97;62.84
54924;BME280;40825;52.270;20.984;2023-07-08T02:25:33;101169.94;;;15.95;63.07
54924;BME280;40825;52.270;20.984;2023-07-08T02:27:59;101172.27;;;15.93;63.61
54924;BME280;40825;52.270;20.984;2023-07-08T02:30:24;101169.48;;;15.93;63.76
54924;BME280;40825;52.270;20.984;2023-07-08T02:32:50;101167.54;;;15.93;63.23
54924;BME280;40825;52.270;20.984;2023-07-08T02:35:27;101167.96;;;15.92;63.92
54924;BME280;40825;52.270;20.984;2023-07-08T02:37:54;101165.82;;;15.89;63.89
54924;BME280;40825;52.270;20.984;2023-07-08T02:40:21;101165.27;;;15.89;63.90
54924;BME280;40825;52.270;20.984;2023-07-08T02:42:47;101164.20;;;15.89;63.82
54924;BME280;40825;52.270;20.984;2023-07-08T02:45:13;101161.19;;;15.90;64.03
54924;BME280;40825;52.270;20.984;2023-07-08T02:47:39;101160.26;;;15.92;64.18
54924;BME280;40825;52.270;20.984;2023-07-08T02:50:08;101162.33;;;15.93;64.90
54924;BME280;40825;52.270;20.984;2023-07-08T02:52:34;101162.27;;;15.90;64.36
54924;BME280;40825;52.270;20.984;2023-07-08T02:54:59;101160.31;;;15.90;64.52
54924;BME280;40825;52.270;20.984;2023-07-08T02:57:25;101163.17;;;15.90;64.33
54924;BME280;40825;52.270;20.984;2023-07-08T02:59:50;101166.63;;;15.91;64.34
54924;BME280;40825;52.270;20.984;2023-07-08T03:02:16;101166.40;;;15.92;64.75
54924;BME280;40825;52.270;20.984;2023-07-08T03:04:42;101166.96;;;15.92;64.59
54924;BME280;40825;52.270;20.984;2023-07-08T03:07:17;101170.90;;;15.93;64.43
54924;BME280;40825;52.270;20.984;2023-07-08T03:09:43;101171.81;;;15.94;64.42
54924;BME280;40825;52.270;20.984;2023-07-08T03:12:11;101169.36;;;15.97;64.70
54924;BME280;40825;52.270;20.984;2023-07-08T03:14:37;101173.17;;;15.98;64.78
54924;BME280;40825;52.270;20.984;2023-07-08T03:17:04;101176.24;;;16.00;65.03
54924;BME280;40825;52.270;20.984;2023-07-08T03:19:30;101176.90;;;16.03;64.88
54924;BME280;40825;52.270;20.984;2023-07-08T03:21:56;101179.47;;;16.07;64.84
54924;BME280;40825;52.270;20.984;2023-07-08T03:24:21;101178.89;;;16.10;65.16
54924;BME280;40825;52.270;20.984;2023-07-08T03:26:47;101182.14;;;16.14;65.38
54924;BME280;40825;52.270;20.984;2023-07-08T03:29:14;101178.77;;;16.16;65.68
54924;BME280;40825;52.270;20.984;2023-07-08T03:31:41;101180.79;;;16.16;65.61
54924;BME280;40825;52.270;20.984;2023-07-08T03:34:09;101183.32;;;16.17;65.56
54924;BME280;40825;52.270;20.984;2023-07-08T03:36:47;101183.89;;;16.19;65.50
54924;BME280;40825;52.270;20.984;2023-07-08T03:39:28;101183.39;;;16.23;65.87
54924;BME280;40825;52.270;20.984;2023-07-08T03:41:55;101178.90;;;16.26;65.52
54924;BME280;40825;52.270;20.984;2023-07-08T03:44:20;101179.02;;;16.29;65.45
54924;BME280;40825;52.270;20.984;2023-07-08T03:46:47;101177.77;;;16.33;65.54
54924;BME280;40825;52.270;20.984;2023-07-08T03:49:16;101179.66;;;16.43;65.66
54924;BME280;40825;52.270;20.984;2023-07-08T03:51:43;101176.02;;;16.55;65.69
54924;BME280;40825;52.270;20.984;2023-07-08T03:54:11;101175.36;;;16.66;65.45
54924;BME280;40825;52.270;20.984;2023-07-08T03:56:38;101176.77;;;16.77;65.19
54924;BME280;40825;52.270;20.984;2023-07-08T03:59:04;101174.31;;;16.84;65.34
54924;BME280;40825;52.270;20.984;2023-07-08T04:01:30;101175.46;;;16.85;65.30
54924;BME280;40825;52.270;20.984;2023-07-08T04:03:57;101175.85;;;16.90;65.26
54924;BME280;40825;52.270;20.984;2023-07-08T04:06:24;101177.54;;;17.01;65.18
54924;BME280;40825;52.270;20.984;2023-07-08T04:08:50;101177.94;;;17.06;65.18
54924;BME280;40825;52.270;20.984;2023-07-08T04:11:20;101172.66;;;17.15;65.07
54924;BME280;40825;52.270;20.984;2023-07-08T04:13:46;101176.29;;;17.27;65.13
54924;BME280;40825;52.270;20.984;2023-07-08T04:18:47;101167.30;;;17.48;65.07
54924;BME280;40825;52.270;20.984;2023-07-08T04:21:16;101167.95;;;17.83;64.90
54924;BME280;40825;52.270;20.984;2023-07-08T04:23:42;101165.35;;;18.69;64.62
54924;BME280;40825;52.270;20.984;2023-07-08T04:26:09;101164.02;;;18.94;64.09
54924;BME280;40825;52.270;20.984;2023-07-08T04:28:35;101165.53;;;18.90;64.21
54924;BME280;40825;52.270;20.984;2023-07-08T04:31:01;101168.35;;;18.89;63.96
54924;BME280;40825;52.270;20.984;2023-07-08T04:33:30;101167.71;;;18.89;63.73
54924;BME280;40825;52.270;20.984;2023-07-08T04:35:56;101164.63;;;18.89;63.68
54924;BME280;40825;52.270;20.984;2023-07-08T04:38:25;101162.95;;;18.90;63.50
54924;BME280;40825;52.270;20.984;2023-07-08T04:40:52;101157.25;;;19.02;63.54
54924;BME280;40825;52.270;20.984;2023-07-08T04:43:19;101156.30;;;19.79;63.29
54924;BME280;40825;52.270;20.984;2023-07-08T04:45:51;101155.50;;;22.34;61.57
54924;BME280;40825;52.270;20.984;2023-07-08T04:48:19;101158.95;;;25.24;58.65
54924;BME280;40825;52.270;20.984;2023-07-08T04:50:48;101160.52;;;27.46;53.22
54924;BME280;40825;52.270;20.984;2023-07-08T04:53:15;101163.23;;;29.11;47.28
54924;BME280;40825;52.270;20.984;2023-07-08T04:55:47;101166.80;;;30.54;44.72
54924;BME280;40825;52.270;20.984;2023-07-08T04:58:13;101169.73;;;31.87;40.64
54924;BME280;40825;52.270;20.984;2023-07-08T05:00:39;101166.30;;;33.05;39.30
54924;BME280;40825;52.270;20.984;2023-07-08T05:03:05;101167.44;;;34.17;41.06
54924;BME280;40825;52.270;20.984;2023-07-08T05:05:30;101171.98;;;34.92;36.01
54924;BME280;40825;52.270;20.984;2023-07-08T05:07:56;101174.70;;;35.43;37.39
54924;BME280;40825;52.270;20.984;2023-07-08T05:10:21;101168.81;;;35.99;35.01
54924;BME280;40825;52.270;20.984;2023-07-08T05:12:47;101169.06;;;35.94;33.24
54924;BME280;40825;52.270;20.984;2023-07-08T05:15:13;101175.23;;;35.16;33.48
54924;BME280;40825;52.270;20.984;2023-07-08T05:17:40;101173.75;;;34.84;32.32
54924;BME280;40825;52.270;20.984;2023-07-08T05:20:07;101170.43;;;35.25;33.22
54924;BME280;40825;52.270;20.984;2023-07-08T05:22:34;101167.38;;;34.86;31.47
54924;BME280;40825;52.270;20.984;2023-07-08T05:24:59;101168.30;;;33.34;33.59
54924;BME280;40825;52.270;20.984;2023-07-08T05:27:25;101165.68;;;31.85;33.10
54924;BME280;40825;52.270;20.984;2023-07-08T05:29:51;101166.87;;;30.60;34.07
54924;BME280;40825;52.270;20.984;2023-07-08T05:32:17;101166.41;;;29.66;34.64
54924;BME280;40825;52.270;20.984;2023-07-08T05:34:43;101165.45;;;28.91;35.45
54924;BME280;40825;52.270;20.984;2023-07-08T05:37:10;101164.13;;;28.34;36.16
54924;BME280;40825;52.270;20.984;2023-07-08T05:39:36;101167.29;;;27.84;35.66
54924;BME280;40825;52.270;20.984;2023-07-08T05:42:01;101169.97;;;27.32;34.86
54924;BME280;40825;52.270;20.984;2023-07-08T05:44:27;101166.02;;;27.10;35.37
54924;BME280;40825;52.270;20.984;2023-07-08T05:46:53;101167.63;;;27.44;35.38
54924;BME280;40825;52.270;20.984;2023-07-08T05:49:18;101164.37;;;28.13;34.96
54924;BME280;40825;52.270;20.984;2023-07-08T05:51:44;101159.98;;;28.26;33.07
54924;BME280;40825;52.270;20.984;2023-07-08T05:54:10;101160.27;;;28.12;33.64
54924;BME280;40825;52.270;20.984;2023-07-08T05:56:36;101157.73;;;28.98;32.80
54924;BME280;40825;52.270;20.984;2023-07-08T05:59:02;101156.79;;;30.14;31.98
54924;BME280;40825;52.270;20.984;2023-07-08T06:01:28;101161.58;;;31.00;31.56
54924;BME280;40825;52.270;20.984;2023-07-08T06:03:53;101154.64;;;31.77;30.40
54924;BME280;40825;52.270;20.984;2023-07-08T06:06:24;101153.57;;;32.28;28.84
54924;BME280;40825;52.270;20.984;2023-07-08T06:08:49;101154.69;;;32.62;28.13
54924;BME280;40825;52.270;20.984;2023-07-08T06:11:15;101153.13;;;33.01;26.93
54924;BME280;40825;52.270;20.984;2023-07-08T06:13:41;101150.70;;;33.26;25.62
54924;BME280;40825;52.270;20.984;2023-07-08T06:16:06;101154.51;;;32.97;25.70
54924;BME280;40825;52.270;20.984;2023-07-08T06:18:32;101148.79;;;32.80;26.88
54924;BME280;40825;52.270;20.984;2023-07-08T06:20:58;101146.80;;;32.63;27.78
54924;BME280;40825;52.270;20.984;2023-07-08T06:23:24;101145.29;;;32.80;25.92
54924;BME280;40825;52.270;20.984;2023-07-08T06:25:50;101146.02;;;33.47;27.03
54924;BME280;40825;52.270;20.984;2023-07-08T06:28:16;101150.92;;;34.05;26.77
54924;BME280;40825;52.270;20.984;2023-07-08T06:30:42;101149.38;;;34.47;26.03
54924;BME280;40825;52.270;20.984;2023-07-08T06:33:07;101149.40;;;34.96;24.62
54924;BME280;40825;52.270;20.984;2023-07-08T06:35:33;101145.59;;;35.16;23.47
54924;BME280;40825;52.270;20.984;2023-07-08T06:37:58;101149.36;;;35.03;24.90
54924;BME280;40825;52.270;20.984;2023-07-08T06:40:24;101144.28;;;35.24;24.28
54924;BME280;40825;52.270;20.984;2023-07-08T06:42:49;101142.84;;;35.67;23.62
54924;BME280;40825;52.270;20.984;2023-07-08T06:45:15;101140.47;;;36.09;23.79
54924;BME280;40825;52.270;20.984;2023-07-08T06:47:40;101141.82;;;36.02;22.39
54924;BME280;40825;52.270;20.984;2023-07-08T06:50:06;101145.86;;;36.50;22.72
54924;BME280;40825;52.270;20.984;2023-07-08T06:52:32;101141.34;;;36.72;21.70
54924;BME280;40825;52.270;20.984;2023-07-08T06:55:01;101140.77;;;36.91;20.48
54924;BME280;40825;52.270;20.984;2023-07-08T06:57:27;101139.73;;;36.96;19.79
54924;BME280;40825;52.270;20.984;2023-07-08T06:59:53;101135.15;;;37.27;20.85
54924;BME280;40825;52.270;20.984;2023-07-08T07:02:19;101136.46;;;37.56;21.01
54924;BME280;40825;52.270;20.984;2023-07-08T07:04:45;101131.50;;;37.91;20.82
54924;BME280;40825;52.270;20.984;2023-07-08T07:07:11;101130.25;;;38.26;20.53
54924;BME280;40825;52.270;20.984;2023-07-08T07:09:37;101127.61;;;38.36;19.18
54924;BME280;40825;52.270;20.984;2023-07-08T07:12:05;101122.06;;;38.45;19.44
54924;BME280;40825;52.270;20.984;2023-07-08T07:14:32;101120.83;;;38.74;19.34
54924;BME280;40825;52.270;20.984;2023-07-08T07:16:57;101123.30;;;39.06;19.78
54924;BME280;40825;52.270;20.984;2023-07-08T07:19:23;101121.34;;;39.44;19.54
54924;BME280;40825;52.270;20.984;2023-07-08T07:21:48;101124.20;;;39.73;19.33
54924;BME280;40825;52.270;20.984;2023-07-08T07:24:14;101124.31;;;39.94;18.76
54924;BME280;40825;52.270;20.984;2023-07-08T07:26:39;101127.64;;;40.10;18.25
54924;BME280;40825;52.270;20.984;2023-07-08T07:29:05;101123.89;;;40.27;18.86
54924;BME280;40825;52.270;20.984;2023-07-08T07:31:30;101123.27;;;40.41;18.29
54924;BME280;40825;52.270;20.984;2023-07-08T07:33:59;101121.31;;;40.31;17.86
54924;BME280;40825;52.270;20.984;2023-07-08T07:36:25;101117.84;;;40.23;16.91
54924;BME280;40825;52.270;20.984;2023-07-08T07:38:50;101118.31;;;40.47;17.47
54924;BME280;40825;52.270;20.984;2023-07-08T07:41:16;101122.13;;;40.71;17.19
54924;BME280;40825;52.270;20.984;2023-07-08T07:43:42;101114.02;;;40.62;17.09
54924;BME280;40825;52.270;20.984;2023-07-08T07:46:07;101114.15;;;40.86;17.05
54924;BME280;40825;52.270;20.984;2023-07-08T07:48:33;101111.08;;;41.14;16.66
54924;BME280;40825;52.270;20.984;2023-07-08T07:50:59;101112.44;;;41.40;16.60
54924;BME280;40825;52.270;20.984;2023-07-08T07:53:25;101115.64;;;41.08;16.52
54924;BME280;40825;52.270;20.984;2023-07-08T07:56:01;101115.73;;;40.78;17.00
54924;BME280;40825;52.270;20.984;2023-07-08T07:58:27;101116.73;;;41.03;16.75
54924;BME280;40825;52.270;20.984;2023-07-08T08:00:53;101116.48;;;41.02;16.36
54924;BME280;40825;52.270;20.984;2023-07-08T08:03:20;101117.56;;;40.83;16.34
54924;BME280;40825;52.270;20.984;2023-07-08T08:05:46;101118.54;;;39.59;16.94
54924;BME280;40825;52.270;20.984;2023-07-08T08:08:12;101116.46;;;37.52;18.01
54924;BME280;40825;52.270;20.984;2023-07-08T08:10:37;101107.98;;;36.32;18.89
54924;BME280;40825;52.270;20.984;2023-07-08T08:13:03;101103.44;;;35.56;19.42
54924;BME280;40825;52.270;20.984;2023-07-08T08:15:29;101104.11;;;35.29;19.89
54924;BME280;40825;52.270;20.984;2023-07-08T08:17:55;101101.05;;;34.98;20.32
54924;BME280;40825;52.270;20.984;2023-07-08T08:20:23;101101.86;;;34.73;20.56
54924;BME280;40825;52.270;20.984;2023-07-08T08:22:50;101103.21;;;34.32;21.12
54924;BME280;40825;52.270;20.984;2023-07-08T08:25:18;101103.86;;;35.00;20.36
54924;BME280;40825;52.270;20.984;2023-07-08T08:27:44;101104.67;;;36.29;19.97
54924;BME280;40825;52.270;20.984;2023-07-08T08:30:10;101108.56;;;37.17;19.32
54924;BME280;40825;52.270;20.984;2023-07-08T08:32:36;101111.52;;;37.67;18.79
54924;BME280;40825;52.270;20.984;2023-07-08T08:35:02;101114.71;;;37.91;18.41
54924;BME280;40825;52.270;20.984;2023-07-08T08:37:28;101115.80;;;38.21;18.36
54924;BME280;40825;52.270;20.984;2023-07-08T08:39:53;101117.48;;;38.58;18.41
54924;BME280;40825;52.270;20.984;2023-07-08T08:42:22;101114.23;;;38.95;17.91
54924;BME280;40825;52.270;20.984;2023-07-08T08:44:49;101109.11;;;38.87;18.04
54924;BME280;40825;52.270;20.984;2023-07-08T08:47:42;101113.01;;;38.69;18.07
54924;BME280;40825;52.270;20.984;2023-07-08T08:50:32;101117.41;;;38.66;17.63
54924;BME280;40825;52.270;20.984;2023-07-08T08:53:02;101117.52;;;38.71;17.75
54924;BME280;40825;52.270;20.984;2023-07-08T08:55:29;101116.08;;;38.59;17.65
54924;BME280;40825;52.270;20.984;2023-07-08T08:58:17;101111.55;;;38.77;17.88
54924;BME280;40825;52.270;20.984;2023-07-08T09:00:59;101112.66;;;39.00;17.96
54924;BME280;40825;52.270;20.984;2023-07-08T09:03:36;101108.45;;;39.15;17.89
54924;BME280;40825;52.270;20.984;2023-07-08T09:06:15;101105.52;;;39.02;17.78
54924;BME280;40825;52.270;20.984;2023-07-08T09:08:42;101108.09;;;38.63;17.95
54924;BME280;40825;52.270;20.984;2023-07-08T09:13:52;101106.46;;;37.64;18.92
54924;BME280;40825;52.270;20.984;2023-07-08T09:16:39;101111.66;;;36.50;19.40
54924;BME280;40825;52.270;20.984;2023-07-08T09:19:12;101115.99;;;35.41;19.65
54924;BME280;40825;52.270;20.984;2023-07-08T09:24:27;101114.16;;;34.37;20.31
54924;BME280;40825;52.270;20.984;2023-07-08T09:26:54;101112.80;;;34.22;20.85
54924;BME280;40825;52.270;20.984;2023-07-08T09:29:22;101108.05;;;34.62;20.85
54924;BME280;40825;52.270;20.984;2023-07-08T09:31:48;101103.48;;;35.07;21.00
54924;BME280;40825;52.270;20.984;2023-07-08T09:34:22;101106.35;;;35.10;21.10
54924;BME280;40825;52.270;20.984;2023-07-08T09:36:50;101110.06;;;34.28;21.23
54924;BME280;40825;52.270;20.984;2023-07-08T09:39:18;101111.10;;;34.08;21.82
54924;BME280;40825;52.270;20.984;2023-07-08T09:41:45;101112.39;;;34.53;21.54
54924;BME280;40825;52.270;20.984;2023-07-08T09:44:24;101110.20;;;34.95;21.57
54924;BME280;40825;52.270;20.984;2023-07-08T09:46:55;101100.59;;;34.77;21.40
54924;BME280;40825;52.270;20.984;2023-07-08T09:49:34;101099.58;;;34.11;21.56
54924;BME280;40825;52.270;20.984;2023-07-08T09:52:01;101100.59;;;33.97;21.66
54924;BME280;40825;52.270;20.984;2023-07-08T09:54:27;101094.71;;;34.09;21.54
54924;BME280;40825;52.270;20.984;2023-07-08T09:57:04;101092.00;;;34.21;21.53
54924;BME280;40825;52.270;20.984;2023-07-08T09:59:42;101093.91;;;34.36;21.62
54924;BME280;40825;52.270;20.984;2023-07-08T10:04:57;101084.04;;;33.38;21.76
54924;BME280;40825;52.270;20.984;2023-07-08T10:07:23;101083.61;;;33.12;22.07
54924;BME280;40825;52.270;20.984;2023-07-08T10:09:51;101082.67;;;32.96;22.27
54924;BME280;40825;52.270;20.984;2023-07-08T10:12:22;101079.10;;;32.61;22.42
54924;BME280;40825;52.270;20.984;2023-07-08T10:14:52;101080.54;;;32.05;23.06
54924;BME280;40825;52.270;20.984;2023-07-08T10:17:20;101077.38;;;31.45;23.48
54924;BME280;40825;52.270;20.984;2023-07-08T10:19:46;101075.12;;;31.14;24.24
54924;BME280;40825;52.270;20.984;2023-07-08T10:28:12;101074.00;;;30.67;24.04
54924;BME280;40825;52.270;20.984;2023-07-08T10:31:00;101073.98;;;30.77;24.79
54924;BME280;40825;52.270;20.984;2023-07-08T10:39:41;101058.81;;;30.77;24.62
54924;BME280;40825;52.270;20.984;2023-07-08T10:44:41;101053.99;;;30.54;25.32
54924;BME280;40825;52.270;20.984;2023-07-08T10:58:20;101051.46;;;30.32;26.02
54924;BME280;40825;52.270;20.984;2023-07-08T11:08:40;101037.16;;;30.04;26.18
54924;BME280;40825;52.270;20.984;2023-07-08T11:11:39;101037.03;;;30.09;26.08
54924;BME280;40825;52.270;20.984;2023-07-08T11:16:42;101037.16;;;29.83;26.53
54924;BME280;40825;52.270;20.984;2023-07-08T11:19:21;101037.03;;;29.65;26.48
54924;BME280;40825;52.270;20.984;2023-07-08T11:21:54;101031.03;;;29.67;26.34
54924;BME280;40825;52.270;20.984;2023-07-08T11:27:08;101023.41;;;29.85;26.47
54924;BME280;40825;52.270;20.984;2023-07-08T11:29:40;101021.45;;;29.76;25.81
54924;BME280;40825;52.270;20.984;2023-07-08T11:32:12;101023.50;;;29.68;26.27
54924;BME280;40825;52.270;20.984;2023-07-08T11:34:41;101025.96;;;29.62;25.96
54924;BME280;40825;52.270;20.984;2023-07-08T11:37:08;101020.95;;;29.66;25.31
54924;BME280;40825;52.270;20.984;2023-07-08T11:39:41;101022.29;;;29.86;25.65
54924;BME280;40825;52.270;20.984;2023-07-08T11:42:17;101022.89;;;30.02;25.83
54924;BME280;40825;52.270;20.984;2023-07-08T11:44:47;101029.86;;;30.03;25.81
54924;BME280;40825;52.270;20.984;2023-07-08T11:47:39;101028.96;;;29.85;25.81
54924;BME280;40825;52.270;20.984;2023-07-08T11:50:21;101023.23;;;29.73;25.81
54924;BME280;40825;52.270;20.984;2023-07-08T11:53:03;101017.39;;;29.78;26.22
54924;BME280;40825;52.270;20.984;2023-07-08T11:58:57;101023.65;;;30.08;26.20
54924;BME280;40825;52.270;20.984;2023-07-08T12:01:23;101018.94;;;30.16;26.10
54924;BME280;40825;52.270;20.984;2023-07-08T12:04:26;101022.69;;;30.14;26.14
54924;BME280;40825;52.270;20.984;2023-07-08T12:07:08;101021.35;;;30.11;26.58
54924;BME280;40825;52.270;20.984;2023-07-08T12:09:37;101018.20;;;30.19;26.50
54924;BME280;40825;52.270;20.984;2023-07-08T12:12:07;101019.96;;;30.19;26.70
54924;BME280;40825;52.270;20.984;2023-07-08T12:14:37;101018.29;;;30.20;26.61
54924;BME280;40825;52.270;20.984;2023-07-08T12:17:07;101016.88;;;30.11;26.79
54924;BME280;40825;52.270;20.984;2023-07-08T12:19:35;101009.91;;;30.04;26.80
54924;BME280;40825;52.270;20.984;2023-07-08T12:22:08;101006.84;;;29.95;26.76
54924;BME280;40825;52.270;20.984;2023-07-08T12:24:34;101003.79;;;29.89;27.17
54924;BME280;40825;52.270;20.984;2023-07-08T12:27:00;101001.62;;;29.69;27.18
54924;BME280;40825;52.270;20.984;2023-07-08T12:29:26;101001.52;;;29.49;27.41
54924;BME280;40825;52.270;20.984;2023-07-08T12:31:51;100996.77;;;29.34;27.50
54924;BME280;40825;52.270;20.984;2023-07-08T12:34:17;100994.97;;;29.36;27.91
54924;BME280;40825;52.270;20.984;2023-07-08T12:36:44;100992.09;;;29.52;27.41
54924;BME280;40825;52.270;20.984;2023-07-08T12:39:13;100985.86;;;29.44;27.21
54924;BME280;40825;52.270;20.984;2023-07-08T12:41:41;100986.11;;;29.21;27.42
54924;BME280;40825;52.270;20.984;2023-07-08T12:44:22;100989.77;;;29.01;28.01
54924;BME280;40825;52.270;20.984;2023-07-08T12:46:50;100986.27;;;28.77;28.28
54924;BME280;40825;52.270;20.984;2023-07-08T12:49:18;100985.82;;;28.53;28.64
54924;BME280;40825;52.270;20.984;2023-07-08T12:51:45;100983.09;;;28.33;28.73
54924;BME280;40825;52.270;20.984;2023-07-08T12:54:13;100979.36;;;28.21;28.60
54924;BME280;40825;52.270;20.984;2023-07-08T12:56:40;100974.21;;;28.07;28.76
54924;BME280;40825;52.270;20.984;2023-07-08T12:59:08;100973.59;;;27.96;29.00
54924;BME280;40825;52.270;20.984;2023-07-08T13:01:35;100970.55;;;27.94;29.07
54924;BME280;40825;52.270;20.984;2023-07-08T13:04:06;100967.52;;;27.99;29.07
54924;BME280;40825;52.270;20.984;2023-07-08T13:06:36;100963.46;;;28.03;29.06
54924;BME280;40825;52.270;20.984;2023-07-08T13:09:16;100964.46;;;28.01;28.90
54924;BME280;40825;52.270;20.984;2023-07-08T13:11:47;100965.88;;;27.97;29.10
54924;BME280;40825;52.270;20.984;2023-07-08T13:14:13;100964.97;;;27.96;29.16
54924;BME280;40825;52.270;20.984;2023-07-08T13:16:40;100970.78;;;27.89;29.12
54924;BME280;40825;52.270;20.984;2023-07-08T13:19:08;100967.03;;;27.82;29.01
54924;BME280;40825;52.270;20.984;2023-07-08T13:21:36;100965.70;;;27.79;29.12
54924;BME280;40825;52.270;20.984;2023-07-08T13:24:06;100963.05;;;27.85;29.00
54924;BME280;40825;52.270;20.984;2023-07-08T13:26:32;100957.41;;;27.92;28.75
54924;BME280;40825;52.270;20.984;2023-07-08T13:29:06;100950.77;;;27.96;28.81
54924;BME280;40825;52.270;20.984;2023-07-08T13:31:38;100955.28;;;28.04;28.86
54924;BME280;40825;52.270;20.984;2023-07-08T13:34:15;100958.28;;;28.09;28.88
54924;BME280;40825;52.270;20.984;2023-07-08T13:36:44;100949.89;;;28.08;28.58
54924;BME280;40825;52.270;20.984;2023-07-08T13:39:44;100952.23;;;28.09;28.71
54924;BME280;40825;52.270;20.984;2023-07-08T13:42:10;100954.86;;;28.06;28.74
54924;BME280;40825;52.270;20.984;2023-07-08T13:44:54;100949.71;;;28.01;28.80